createdAt,value
2023-04-10T00:00:11.769Z,3.96
2023-04-10T00:03:03.003Z,3.96
2023-04-10T00:05:31.614Z,3.89
2023-04-10T00:07:59.730Z,3.95
2023-04-10T00:10:30.528Z,3.98
2023-04-10T00:13:00.966Z,4.01
2023-04-10T00:15:29.227Z,4.02
2023-04-10T00:17:57.457Z,4.04
2023-04-10T00:20:26.520Z,4.04
2023-04-10T00:22:54.854Z,4.05
2023-04-10T00:25:26.683Z,4.06
2023-04-10T00:27:54.904Z,4.07
2023-04-10T00:30:23.128Z,4.08
2023-04-10T00:32:51.512Z,4.09
2023-04-10T00:35:19.792Z,4.02
2023-04-10T00:37:47.978Z,4.10
2023-04-10T00:40:16.154Z,4.12
2023-04-10T00:42:44.543Z,4.13
2023-04-10T00:45:12.739Z,4.13
2023-04-10T00:47:41.143Z,4.13
2023-04-10T00:50:10.516Z,4.12
2023-04-10T00:52:38.728Z,4.00
2023-04-10T00:55:07.986Z,4.12
2023-04-10T00:57:36.168Z,4.13
2023-04-10T01:00:05.806Z,4.15
2023-04-10T01:02:34.174Z,4.17
2023-04-10T01:05:02.473Z,4.14
2023-04-10T01:08:01.841Z,4.19
2023-04-10T01:10:35.460Z,4.17
2023-04-10T01:13:22.055Z,4.17
2023-04-10T01:16:03.288Z,4.17
2023-04-10T01:18:31.409Z,4.19
2023-04-10T01:21:02.569Z,4.18
2023-04-10T01:23:49.090Z,4.18
2023-04-10T01:26:33.021Z,4.17
2023-04-10T01:29:06.963Z,4.17
2023-04-10T01:31:55.434Z,4.17
2023-04-10T01:34:36.077Z,4.19
2023-04-10T01:37:09.342Z,4.18
2023-04-10T01:39:40.688Z,4.17
2023-04-10T01:42:10.908Z,4.14
2023-04-10T01:44:43.194Z,4.11
2023-04-10T01:47:16.431Z,4.07
2023-04-10T01:49:47.499Z,4.04
2023-04-10T01:52:17.541Z,4.01
2023-04-10T01:54:52.091Z,3.99
2023-04-10T01:57:26.278Z,3.98
2023-04-10T01:59:59.406Z,3.98
2023-04-10T02:02:32.157Z,3.99
2023-04-10T02:05:01.138Z,4.01
2023-04-10T02:07:38.086Z,4.03
2023-04-10T02:10:31.643Z,4.04
2023-04-10T02:13:21.740Z,4.07
2023-04-10T02:15:52.254Z,4.11
2023-04-10T02:18:22.359Z,4.14
2023-04-10T02:20:51.085Z,4.17
2023-04-10T02:23:20.953Z,4.20
2023-04-10T02:25:49.117Z,4.24
2023-04-10T02:28:17.848Z,4.20
2023-04-10T02:30:46.023Z,4.29
2023-04-10T02:33:14.436Z,4.30
2023-04-10T02:35:42.631Z,4.31
2023-04-10T02:38:10.977Z,4.35
2023-04-10T02:40:39.295Z,4.39
2023-04-10T02:43:11.771Z,4.39
2023-04-10T02:45:40.157Z,4.30
2023-04-10T02:48:08.642Z,4.35
2023-04-10T02:50:37.251Z,4.33
2023-04-10T02:53:05.616Z,4.33
2023-04-10T02:55:33.899Z,4.35
2023-04-10T02:58:02.158Z,4.36
2023-04-10T03:00:31.224Z,4.37
2023-04-10T03:03:10.256Z,4.37
2023-04-10T03:05:49.536Z,4.35
2023-04-10T03:08:19.281Z,4.36
2023-04-10T03:10:50.912Z,4.35
2023-04-10T03:13:19.002Z,4.38
2023-04-10T03:15:47.204Z,4.38
2023-04-10T03:18:15.604Z,4.41
2023-04-10T03:20:45.214Z,4.42
2023-04-10T03:23:13.618Z,4.43
2023-04-10T03:25:42.401Z,4.40
2023-04-10T03:28:10.913Z,4.33
2023-04-10T03:30:39.104Z,4.27
2023-04-10T03:33:07.287Z,4.19
2023-04-10T03:35:35.554Z,4.10
2023-04-10T03:38:03.706Z,4.02
2023-04-10T03:40:31.910Z,3.92
2023-04-10T03:43:00.824Z,3.82
2023-04-10T03:45:31.302Z,3.78
2023-04-10T03:48:00.923Z,3.71
2023-04-10T03:50:29.562Z,3.61
2023-04-10T03:53:01.336Z,3.56
2023-04-10T03:55:29.493Z,3.56
2023-04-10T03:57:58.834Z,3.53
2023-04-10T04:00:27.533Z,3.52
2023-04-10T04:03:03.286Z,3.52
2023-04-10T04:05:57.834Z,3.46
2023-04-10T04:08:36.356Z,3.50
2023-04-10T04:11:16.407Z,3.50
2023-04-10T04:14:03.849Z,3.40
2023-04-10T04:16:52.556Z,3.45
2023-04-10T04:19:44.022Z,3.45
2023-04-10T04:22:38.481Z,3.46
2023-04-10T04:25:32.931Z,3.46
2023-04-10T04:28:21.408Z,3.49
2023-04-10T04:31:01.006Z,3.50
2023-04-10T04:33:49.126Z,3.52
2023-04-10T04:36:33.090Z,3.54
2023-04-10T04:39:14.709Z,3.54
2023-04-10T04:42:15.713Z,3.56
2023-04-10T04:44:51.460Z,3.49
2023-04-10T04:47:52.257Z,3.55
2023-04-10T04:50:29.837Z,3.57
2023-04-10T04:53:14.028Z,3.60
2023-04-10T04:56:03.203Z,3.62
2023-04-10T04:58:47.068Z,3.64
2023-04-10T05:01:38.436Z,3.66
2023-04-10T05:04:14.178Z,3.72
2023-04-10T05:06:58.343Z,3.74
2023-04-10T05:09:52.394Z,3.77
2023-04-10T05:12:20.622Z,3.76
2023-04-10T05:15:00.331Z,3.77
2023-04-10T05:17:34.467Z,3.80
2023-04-10T05:20:41.216Z,3.86
2023-04-10T05:23:21.862Z,3.90
2023-04-10T05:26:07.729Z,3.96
2023-04-10T05:28:58.949Z,3.94
2023-04-10T05:31:47.323Z,4.08
2023-04-10T05:34:27.132Z,4.13
2023-04-10T05:37:13.942Z,4.15
2023-04-10T05:39:53.227Z,4.10
2023-04-10T05:42:27.891Z,4.17
2023-04-10T05:45:22.284Z,4.21
2023-04-10T05:48:10.748Z,4.19
2023-04-10T05:51:08.380Z,4.35
2023-04-10T05:53:43.654Z,4.42
2023-04-10T05:56:34.367Z,4.48
2023-04-10T05:59:21.396Z,4.52
2023-04-10T06:02:08.923Z,4.61
2023-04-10T06:04:37.281Z,4.67
2023-04-10T06:07:07.036Z,4.74
2023-04-10T06:09:35.328Z,4.81
2023-04-10T06:12:06.823Z,4.79
2023-04-10T06:14:35.742Z,4.94
2023-04-10T06:17:04.081Z,4.99
2023-04-10T06:19:32.435Z,5.12
2023-04-10T06:22:00.735Z,5.20
2023-04-10T06:24:28.917Z,5.32
2023-04-10T06:26:57.223Z,5.43
2023-04-10T06:29:25.774Z,5.55
2023-04-10T06:31:54.112Z,5.69
2023-04-10T06:34:22.826Z,5.80
2023-04-10T06:36:58.784Z,5.88
2023-04-10T06:39:26.956Z,5.96
2023-04-10T06:41:55.233Z,6.04
2023-04-10T06:44:36.266Z,6.12
2023-04-10T06:47:06.899Z,6.17
2023-04-10T06:49:35.176Z,6.28
2023-04-10T06:52:03.672Z,6.38
2023-04-10T06:54:31.772Z,6.45
2023-04-10T06:56:59.875Z,6.53
2023-04-10T06:59:28.062Z,6.60
2023-04-10T07:01:56.339Z,6.69
2023-04-10T07:04:24.650Z,6.74
2023-04-10T07:06:52.772Z,6.83
2023-04-10T07:09:21.123Z,6.90
2023-04-10T07:11:49.353Z,6.98
2023-04-10T07:14:17.560Z,7.01
2023-04-10T07:16:46.324Z,7.07
2023-04-10T07:19:14.703Z,7.11
2023-04-10T07:21:42.885Z,7.14
2023-04-10T07:24:11.678Z,7.25
2023-04-10T07:26:39.803Z,7.37
2023-04-10T07:29:09.420Z,7.48
2023-04-10T07:31:37.806Z,7.55
2023-04-10T07:34:07.772Z,7.60
2023-04-10T07:36:35.880Z,7.70
2023-04-10T07:39:04.145Z,7.85
2023-04-10T07:41:32.394Z,7.98
2023-04-10T07:44:01.078Z,8.10
2023-04-10T07:46:29.308Z,8.22
2023-04-10T07:48:57.834Z,8.30
2023-04-10T07:51:26.118Z,8.47
2023-04-10T07:53:54.333Z,8.55
2023-04-10T07:56:22.952Z,8.64
2023-04-10T07:58:51.963Z,8.74
2023-04-10T08:01:20.426Z,8.85
2023-04-10T08:03:48.808Z,8.97
2023-04-10T08:06:17.140Z,9.14
2023-04-10T08:08:45.415Z,9.32
2023-04-10T08:11:31.554Z,9.40
2023-04-10T08:14:02.182Z,9.40
2023-04-10T08:16:35.114Z,9.48
2023-04-10T08:19:03.473Z,9.57
2023-04-10T08:21:32.248Z,9.66
2023-04-10T08:24:03.120Z,9.76
2023-04-10T08:26:31.570Z,9.89
2023-04-10T08:29:01.563Z,9.98
2023-04-10T08:31:31.574Z,10.10
2023-04-10T08:34:00.159Z,10.29
2023-04-10T08:36:28.630Z,10.40
2023-04-10T08:38:57.222Z,10.41
2023-04-10T08:41:25.745Z,10.54
2023-04-10T08:43:54.276Z,10.77
2023-04-10T08:46:25.380Z,11.04
2023-04-10T08:49:05.694Z,11.26
2023-04-10T08:51:47.971Z,11.46
2023-04-10T08:54:34.259Z,11.57
2023-04-10T08:57:02.619Z,11.65
2023-04-10T08:59:31.620Z,11.87
2023-04-10T09:02:00.001Z,12.23
2023-04-10T09:04:28.423Z,12.56
2023-04-10T09:06:56.681Z,12.88
2023-04-10T09:09:24.906Z,13.14
2023-04-10T09:11:53.102Z,13.44
2023-04-10T09:14:32.151Z,13.85
2023-04-10T09:17:21.225Z,14.32
2023-04-10T09:19:50.717Z,14.65
2023-04-10T09:22:29.303Z,14.86
2023-04-10T09:24:59.543Z,15.06
2023-04-10T09:27:40.378Z,15.39
2023-04-10T09:30:09.064Z,15.89
2023-04-10T09:32:45.007Z,16.45
2023-04-10T09:35:15.337Z,16.82
2023-04-10T09:37:47.115Z,17.13
2023-04-10T09:40:24.671Z,17.65
2023-04-10T09:42:56.040Z,18.14
2023-04-10T09:45:24.258Z,18.65
2023-04-10T09:48:08.484Z,18.87
2023-04-10T09:50:40.466Z,19.19
2023-04-10T09:53:12.443Z,19.30
2023-04-10T09:55:42.006Z,19.45
2023-04-10T09:58:11.224Z,19.59
2023-04-10T10:00:44.723Z,19.40
2023-04-10T10:03:14.214Z,19.50
2023-04-10T10:05:48.471Z,19.53
2023-04-10T10:08:17.177Z,19.38
2023-04-10T10:10:48.442Z,19.20
2023-04-10T10:14:02.959Z,19.38
2023-04-10T10:16:46.792Z,19.29
2023-04-10T10:19:37.232Z,19.61
2023-04-10T10:22:06.723Z,19.78
2023-04-10T10:24:37.385Z,20.06
2023-04-10T10:27:09.796Z,20.43
2023-04-10T10:29:39.969Z,20.82
2023-04-10T10:32:08.914Z,21.09
2023-04-10T10:34:37.843Z,21.29
2023-04-10T10:37:06.170Z,21.32
2023-04-10T10:40:08.588Z,21.42
2023-04-10T10:42:45.922Z,21.11
2023-04-10T10:45:19.469Z,20.85
2023-04-10T10:47:52.214Z,21.01
2023-04-10T10:50:23.434Z,21.37
2023-04-10T10:52:54.150Z,21.75
2023-04-10T10:55:22.323Z,21.96
2023-04-10T10:57:54.055Z,22.31
2023-04-10T11:00:24.556Z,22.42
2023-04-10T11:03:08.221Z,22.35
2023-04-10T11:05:56.105Z,22.06
2023-04-10T11:08:33.590Z,21.41
2023-04-10T11:11:03.001Z,20.93
2023-04-10T11:13:32.156Z,20.74
2023-04-10T11:16:03.302Z,20.99
2023-04-10T11:18:49.605Z,21.24
2023-04-10T11:21:22.919Z,20.95
2023-04-10T11:23:51.200Z,21.02
2023-04-10T11:26:41.508Z,20.58
2023-04-10T11:29:18.811Z,20.29
2023-04-10T11:32:08.274Z,20.11
2023-04-10T11:34:44.883Z,20.13
2023-04-10T11:37:23.846Z,20.17
2023-04-10T11:40:04.789Z,20.39
2023-04-10T11:42:32.937Z,20.79
2023-04-10T11:45:22.486Z,21.32
2023-04-10T11:47:54.719Z,21.54
2023-04-10T11:50:23.449Z,21.20
2023-04-10T11:52:51.829Z,20.60
2023-04-10T11:55:20.976Z,20.54
2023-04-10T11:57:49.162Z,20.32
2023-04-10T12:00:24.408Z,20.24
2023-04-10T12:02:54.580Z,20.07
2023-04-10T12:05:23.150Z,20.23
2023-04-10T12:07:51.739Z,20.32
2023-04-10T12:10:19.957Z,20.34
2023-04-10T12:12:48.344Z,20.37
2023-04-10T12:15:27.377Z,20.40
2023-04-10T12:17:55.912Z,20.45
2023-04-10T12:20:27.911Z,20.47
2023-04-10T12:22:57.337Z,20.77
2023-04-10T12:25:25.599Z,20.75
2023-04-10T12:27:53.749Z,20.61
2023-04-10T12:30:22.497Z,20.59
2023-04-10T12:32:53.856Z,20.52
2023-04-10T12:35:38.038Z,20.70
2023-04-10T12:38:06.326Z,20.87
2023-04-10T12:40:34.518Z,20.71
2023-04-10T12:43:02.628Z,20.64
2023-04-10T12:45:44.141Z,20.66
2023-04-10T12:48:12.889Z,20.88
2023-04-10T12:50:48.053Z,20.79
2023-04-10T12:53:16.369Z,20.80
2023-04-10T12:56:05.051Z,21.09
2023-04-10T12:58:33.495Z,21.70
2023-04-10T13:01:06.335Z,21.84
2023-04-10T13:03:36.527Z,21.70
2023-04-10T13:06:08.483Z,21.83
2023-04-10T13:08:36.700Z,21.76
2023-04-10T13:11:05.242Z,21.83
2023-04-10T13:13:33.346Z,21.64
2023-04-10T13:16:01.637Z,21.40
2023-04-10T13:18:30.028Z,21.17
2023-04-10T13:20:59.079Z,21.22
2023-04-10T13:23:27.168Z,21.18
2023-04-10T13:25:56.937Z,20.87
2023-04-10T13:28:25.781Z,20.73
2023-04-10T13:30:54.678Z,21.14
2023-04-10T13:33:25.095Z,21.47
2023-04-10T13:35:53.334Z,21.84
2023-04-10T13:38:21.564Z,21.86
2023-04-10T13:40:49.827Z,21.92
2023-04-10T13:43:17.938Z,21.77
2023-04-10T13:45:46.157Z,21.63
2023-04-10T13:48:17.645Z,21.97
2023-04-10T13:50:47.303Z,22.03
2023-04-10T13:53:15.583Z,22.08
2023-04-10T13:55:44.704Z,22.20
2023-04-10T13:58:13.594Z,22.11
2023-04-10T14:00:44.897Z,21.93
2023-04-10T14:03:13.237Z,21.77
2023-04-10T14:05:41.535Z,21.75
2023-04-10T14:08:12.485Z,21.74
2023-04-10T14:10:40.681Z,21.63
2023-04-10T14:13:09.443Z,21.89
2023-04-10T14:15:37.757Z,22.22
2023-04-10T14:18:05.981Z,21.87
2023-04-10T14:20:34.236Z,21.87
2023-04-10T14:23:02.543Z,21.83
2023-04-10T14:25:30.933Z,21.62
2023-04-10T14:27:59.926Z,21.36
2023-04-10T14:30:31.065Z,21.01
2023-04-10T14:32:59.580Z,20.98
2023-04-10T14:35:27.925Z,21.23
2023-04-10T14:37:56.056Z,21.41
2023-04-10T14:40:25.399Z,21.39
2023-04-10T14:42:53.566Z,21.35
2023-04-10T14:45:21.675Z,21.17
2023-04-10T14:47:50.059Z,21.09
2023-04-10T14:50:18.366Z,20.94
2023-04-10T14:52:46.461Z,20.83
2023-04-10T14:55:14.582Z,20.53
2023-04-10T14:57:42.701Z,20.62
2023-04-10T15:00:12.041Z,20.96
2023-04-10T15:02:40.465Z,21.38
2023-04-10T15:05:08.864Z,21.66
2023-04-10T15:07:37.251Z,21.66
2023-04-10T15:10:06.417Z,21.33
2023-04-10T15:12:34.543Z,21.01
2023-04-10T15:15:02.820Z,21.24
2023-04-10T15:17:31.049Z,21.50
2023-04-10T15:19:59.222Z,21.60
2023-04-10T15:22:27.495Z,21.40
2023-04-10T15:24:55.684Z,21.42
2023-04-10T15:27:23.764Z,21.43
2023-04-10T15:29:51.872Z,21.50
2023-04-10T15:32:20.094Z,21.27
2023-04-10T15:34:48.417Z,21.02
2023-04-10T15:37:16.577Z,20.69
2023-04-10T15:39:44.733Z,20.59
2023-04-10T15:42:13.400Z,20.51
2023-04-10T15:44:41.496Z,20.40
2023-04-10T15:47:09.715Z,20.62
2023-04-10T15:49:38.884Z,20.55
2023-04-10T15:52:07.141Z,20.25
2023-04-10T15:54:35.506Z,20.01
2023-04-10T15:57:03.944Z,19.75
2023-04-10T15:59:33.354Z,19.44
2023-04-10T16:02:02.327Z,19.13
2023-04-10T16:04:31.341Z,18.88
2023-04-10T16:06:59.615Z,18.63
2023-04-10T16:09:27.776Z,18.40
2023-04-10T16:11:56.338Z,18.17
2023-04-10T16:14:24.762Z,17.90
2023-04-10T16:16:53.023Z,17.64
2023-04-10T16:19:21.182Z,17.44
2023-04-10T16:21:50.319Z,17.15
2023-04-10T16:24:18.458Z,16.84
2023-04-10T16:26:46.599Z,16.60
2023-04-10T16:29:16.129Z,16.39
2023-04-10T16:31:44.409Z,16.22
2023-04-10T16:34:12.654Z,16.09
2023-04-10T16:36:40.923Z,15.99
2023-04-10T16:39:09.050Z,15.95
2023-04-10T16:41:37.199Z,15.93
2023-04-10T16:44:05.376Z,15.87
2023-04-10T16:46:33.522Z,15.77
2023-04-10T16:49:02.160Z,15.66
2023-04-10T16:51:31.197Z,15.50
2023-04-10T16:53:59.442Z,15.34
2023-04-10T16:56:27.629Z,15.23
2023-04-10T16:58:57.492Z,15.19
2023-04-10T17:01:25.953Z,15.14
2023-04-10T17:03:54.839Z,15.10
2023-04-10T17:06:23.052Z,14.97
2023-04-10T17:08:51.268Z,15.02
2023-04-10T17:11:19.544Z,14.96
2023-04-10T17:13:47.815Z,14.87
2023-04-10T17:16:16.286Z,14.83
2023-04-10T17:18:45.810Z,14.67
2023-04-10T17:21:14.284Z,14.58
2023-04-10T17:23:42.803Z,14.53
2023-04-10T17:26:16.016Z,14.39
2023-04-10T17:28:47.646Z,14.32
2023-04-10T17:31:17.066Z,14.20
2023-04-10T17:33:45.319Z,14.12
2023-04-10T17:36:14.214Z,14.03
2023-04-10T17:38:42.837Z,13.91
2023-04-10T17:41:15.553Z,13.76
2023-04-10T17:43:43.701Z,13.61
2023-04-10T17:46:18.550Z,13.51
2023-04-10T17:48:46.882Z,13.44
2023-04-10T17:51:15.116Z,13.39
2023-04-10T17:53:43.306Z,13.32
2023-04-10T17:56:19.718Z,13.25
2023-04-10T17:58:48.332Z,13.12
2023-04-10T18:01:29.862Z,13.05
2023-04-10T18:03:59.304Z,12.94
2023-04-10T18:06:28.122Z,12.88
2023-04-10T18:08:57.489Z,12.76
2023-04-10T18:11:26.319Z,12.60
2023-04-10T18:13:54.753Z,12.41
2023-04-10T18:16:23.251Z,12.38
2023-04-10T18:18:51.569Z,12.29
2023-04-10T18:21:21.075Z,12.21
2023-04-10T18:23:49.131Z,12.13
2023-04-10T18:26:20.853Z,12.04
2023-04-10T18:28:49.143Z,11.96
2023-04-10T18:31:19.074Z,11.86
2023-04-10T18:33:56.222Z,11.77
2023-04-10T18:36:32.392Z,11.68
2023-04-10T18:39:00.533Z,11.59
2023-04-10T18:41:28.764Z,11.56
2023-04-10T18:44:04.814Z,11.50
2023-04-10T18:46:33.678Z,11.45
2023-04-10T18:49:03.444Z,11.44
2023-04-10T18:51:34.932Z,11.41
2023-04-10T18:54:04.325Z,11.35
2023-04-10T18:56:32.857Z,11.29
2023-04-10T18:59:01.961Z,11.27
2023-04-10T19:01:30.158Z,11.29
2023-04-10T19:03:58.756Z,11.28
2023-04-10T19:06:27.984Z,11.26
2023-04-10T19:08:56.247Z,11.25
2023-04-10T19:11:24.818Z,11.22
2023-04-10T19:13:53.377Z,11.12
2023-04-10T19:16:21.735Z,11.00
2023-04-10T19:18:49.992Z,10.97
2023-04-10T19:21:18.223Z,10.93
2023-04-10T19:23:47.346Z,10.91
2023-04-10T19:26:15.692Z,10.88
2023-04-10T19:28:43.830Z,10.85
2023-04-10T19:31:12.169Z,10.74
2023-04-10T19:33:40.395Z,10.69
2023-04-10T19:36:08.824Z,10.68
2023-04-10T19:38:37.318Z,10.67
2023-04-10T19:41:13.947Z,10.67
2023-04-10T19:43:42.310Z,10.66
2023-04-10T19:46:18.152Z,10.62
2023-04-10T19:48:46.969Z,10.59
2023-04-10T19:51:15.480Z,10.56
2023-04-10T19:53:44.113Z,10.54
2023-04-10T19:56:12.538Z,10.50
2023-04-10T19:58:41.653Z,10.48
2023-04-10T20:01:12.104Z,10.43
2023-04-10T20:03:40.883Z,10.41
2023-04-10T20:06:10.393Z,10.40
2023-04-10T20:08:38.893Z,10.40
2023-04-10T20:11:07.209Z,10.41
2023-04-10T20:13:35.658Z,10.43
2023-04-10T20:16:03.891Z,10.42
2023-04-10T20:18:32.246Z,10.41
2023-04-10T20:21:00.721Z,10.41
2023-04-10T20:23:28.999Z,10.41
2023-04-10T20:25:57.213Z,10.34
2023-04-10T20:28:25.425Z,10.43
2023-04-10T20:30:53.693Z,10.43
2023-04-10T20:33:21.891Z,10.43
2023-04-10T20:35:50.215Z,10.36
2023-04-10T20:38:18.937Z,10.45
2023-04-10T20:40:47.163Z,10.46
2023-04-10T20:43:15.339Z,10.47
2023-04-10T20:45:43.587Z,10.49
2023-04-10T20:48:12.532Z,10.51
2023-04-10T20:50:46.111Z,10.52
2023-04-10T20:53:14.261Z,10.54
2023-04-10T20:55:42.737Z,10.55
2023-04-10T20:58:11.164Z,10.56
2023-04-10T21:00:41.167Z,10.49
2023-04-10T21:03:09.478Z,10.58
2023-04-10T21:05:41.944Z,10.59
2023-04-10T21:08:11.765Z,10.60
2023-04-10T21:10:44.444Z,10.61
2023-04-10T21:13:14.316Z,10.61
2023-04-10T21:15:43.343Z,10.60
2023-04-10T21:18:11.662Z,10.60
2023-04-10T21:20:39.938Z,10.63
2023-04-10T21:23:08.125Z,10.63
2023-04-10T21:25:36.592Z,10.61
2023-04-10T21:28:04.826Z,10.59
2023-04-10T21:30:33.006Z,10.59
2023-04-10T21:33:01.279Z,10.59
2023-04-10T21:35:29.457Z,10.59
2023-04-10T21:38:01.800Z,10.52
2023-04-10T21:40:34.354Z,10.57
2023-04-10T21:43:03.896Z,10.56
2023-04-10T21:45:34.725Z,10.44
2023-04-10T21:48:03.210Z,10.50
2023-04-10T21:50:31.433Z,10.47
2023-04-10T21:53:00.321Z,10.44
2023-04-10T21:55:28.547Z,10.42
2023-04-10T21:57:56.777Z,10.40
2023-04-10T22:00:25.073Z,10.38
2023-04-10T22:02:53.420Z,10.37
2023-04-10T22:05:22.752Z,10.35
2023-04-10T22:07:51.123Z,10.33
2023-04-10T22:10:19.847Z,10.31
2023-04-10T22:12:48.931Z,10.29
2023-04-10T22:15:17.729Z,10.29
2023-04-10T22:17:46.073Z,10.28
2023-04-10T22:20:14.361Z,10.21
2023-04-10T22:22:42.659Z,10.28
2023-04-10T22:25:10.830Z,10.27
2023-04-10T22:27:39.006Z,10.26
2023-04-10T22:30:07.686Z,10.27
2023-04-10T22:32:35.816Z,10.28
2023-04-10T22:35:04.275Z,10.26
2023-04-10T22:37:32.384Z,10.27
2023-04-10T22:40:03.085Z,10.27
2023-04-10T22:42:32.178Z,10.26
2023-04-10T22:45:01.130Z,10.23
2023-04-10T22:47:29.256Z,10.22
2023-04-10T22:49:57.909Z,10.19
2023-04-10T22:52:25.992Z,10.17
2023-04-10T22:54:54.164Z,10.17
2023-04-10T22:57:22.225Z,10.16
2023-04-10T22:59:50.705Z,10.12
2023-04-10T23:02:19.312Z,10.08
2023-04-10T23:04:47.738Z,10.12
2023-04-10T23:07:16.341Z,10.11
2023-04-10T23:09:44.503Z,10.10
2023-04-10T23:12:12.631Z,10.08
2023-04-10T23:14:40.720Z,10.09
2023-04-10T23:17:08.826Z,10.01
2023-04-10T23:19:36.941Z,10.07
2023-04-10T23:22:05.537Z,10.05
2023-04-10T23:24:33.703Z,10.04
2023-04-10T23:27:01.958Z,10.02
2023-04-10T23:29:30.058Z,10.02
2023-04-10T23:31:58.182Z,10.01
2023-04-10T23:34:26.956Z,10.01
2023-04-10T23:36:55.876Z,10.01
2023-04-10T23:39:24.028Z,10.02
2023-04-10T23:41:52.159Z,10.02
2023-04-10T23:44:20.278Z,10.01
2023-04-10T23:46:49.600Z,10.01
2023-04-10T23:49:18.611Z,10.00
2023-04-10T23:51:46.760Z,10.00
2023-04-10T23:54:15.068Z,10.00
2023-04-10T23:56:43.257Z,10.00
2023-04-10T23:59:11.557Z,9.99
